sensor_id;sensor_type;location;lat;lon;timestamp;temperature;humidity
2889;DHT22;1453;42.708;23.282;2022-08-03T00:00:48;21.10;99.90
2889;DHT22;1453;42.708;23.282;2022-08-03T00:03:14;21.10;99.90
2889;DHT22;1453;42.708;23.282;2022-08-03T00:05:39;21.20;99.90
2889;DHT22;1453;42.708;23.282;2022-08-03T00:08:05;21.10;99.90
2889;DHT22;1453;42.708;23.282;2022-08-03T00:10:31;21.10;99.90
2889;DHT22;1453;42.708;23.282;2022-08-03T00:12:57;21.00;99.90
2889;DHT22;1453;42.708;23.282;2022-08-03T00:15:23;20.80;99.90
2889;DHT22;1453;42.708;23.282;2022-08-03T00:17:48;20.80;99.90
2889;DHT22;1453;42.708;23.282;2022-08-03T00:20:14;20.80;99.90
2889;DHT22;1453;42.708;23.282;2022-08-03T00:22:40;20.60;99.90
2889;DHT22;1453;42.708;23.282;2022-08-03T00:25:06;20.60;99.90
2889;DHT22;1453;42.708;23.282;2022-08-03T00:27:32;20.60;99.90
2889;DHT22;1453;42.708;23.282;2022-08-03T00:29:58;20.50;99.90
2889;DHT22;1453;42.708;23.282;2022-08-03T00:32:24;20.50;99.90
2889;DHT22;1453;42.708;23.282;2022-08-03T00:34:50;20.60;99.90
2889;DHT22;1453;42.708;23.282;2022-08-03T00:37:16;20.40;99.90
2889;DHT22;1453;42.708;23.282;2022-08-03T00:39:42;20.50;99.90
2889;DHT22;1453;42.708;23.282;2022-08-03T00:42:10;20.40;99.90
2889;DHT22;1453;42.708;23.282;2022-08-03T00:44:40;20.50;99.90
2889;DHT22;1453;42.708;23.282;2022-08-03T00:47:08;20.50;99.90
2889;DHT22;1453;42.708;23.282;2022-08-03T00:49:36;20.40;99.90
2889;DHT22;1453;42.708;23.282;2022-08-03T00:52:03;20.40;99.90
2889;DHT22;1453;42.708;23.282;2022-08-03T00:54:29;20.40;99.90
2889;DHT22;1453;42.708;23.282;2022-08-03T00:56:56;20.30;99.90
2889;DHT22;1453;42.708;23.282;2022-08-03T00:59:22;20.30;99.90
2889;DHT22;1453;42.708;23.282;2022-08-03T01:01:48;20.30;99.90
2889;DHT22;1453;42.708;23.282;2022-08-03T01:04:14;20.20;99.90
2889;DHT22;1453;42.708;23.282;2022-08-03T01:06:54;20.00;99.90
2889;DHT22;1453;42.708;23.282;2022-08-03T01:09:34;20.00;99.90
2889;DHT22;1453;42.708;23.282;2022-08-03T01:17:50;19.90;99.90
2889;DHT22;1453;42.708;23.282;2022-08-03T01:20:21;19.90;99.90
2889;DHT22;1453;42.708;23.282;2022-08-03T01:31:42;19.60;99.90
2889;DHT22;1453;42.708;23.282;2022-08-03T01:34:11;19.50;99.90
2889;DHT22;1453;42.708;23.282;2022-08-03T01:36:43;19.50;99.90
2889;DHT22;1453;42.708;23.282;2022-08-03T01:39:15;19.60;99.90
2889;DHT22;1453;42.708;23.282;2022-08-03T01:41:47;19.50;99.90
2889;DHT22;1453;42.708;23.282;2022-08-03T01:44:16;19.50;99.90
2889;DHT22;1453;42.708;23.282;2022-08-03T01:46:42;19.40;99.90
2889;DHT22;1453;42.708;23.282;2022-08-03T01:49:10;19.30;99.90
2889;DHT22;1453;42.708;23.282;2022-08-03T01:51:41;19.20;99.90
2889;DHT22;1453;42.708;23.282;2022-08-03T01:54:10;19.20;99.90
2889;DHT22;1453;42.708;23.282;2022-08-03T01:56:39;19.10;99.90
2889;DHT22;1453;42.708;23.282;2022-08-03T01:59:06;19.00;99.90
2889;DHT22;1453;42.708;23.282;2022-08-03T02:01:34;19.00;99.90
2889;DHT22;1453;42.708;23.282;2022-08-03T02:04:02;19.00;99.90
2889;DHT22;1453;42.708;23.282;2022-08-03T02:06:31;18.90;99.90
2889;DHT22;1453;42.708;23.282;2022-08-03T02:08:59;18.70;99.90
2889;DHT22;1453;42.708;23.282;2022-08-03T02:11:29;18.70;99.90
2889;DHT22;1453;42.708;23.282;2022-08-03T02:13:58;18.70;99.90
2889;DHT22;1453;42.708;23.282;2022-08-03T02:16:25;18.70;99.90
2889;DHT22;1453;42.708;23.282;2022-08-03T02:18:54;18.50;99.90
2889;DHT22;1453;42.708;23.282;2022-08-03T02:21:22;18.10;99.90
2889;DHT22;1453;42.708;23.282;2022-08-03T02:23:48;18.30;99.90
2889;DHT22;1453;42.708;23.282;2022-08-03T02:26:16;18.30;99.90
2889;DHT22;1453;42.708;23.282;2022-08-03T02:28:46;18.30;99.90
2889;DHT22;1453;42.708;23.282;2022-08-03T02:31:22;18.10;99.90
2889;DHT22;1453;42.708;23.282;2022-08-03T02:33:55;17.90;99.90
2889;DHT22;1453;42.708;23.282;2022-08-03T02:36:25;17.60;99.90
2889;DHT22;1453;42.708;23.282;2022-08-03T02:38:56;17.20;99.90
2889;DHT22;1453;42.708;23.282;2022-08-03T02:41:28;17.10;99.90
2889;DHT22;1453;42.708;23.282;2022-08-03T02:43:58;17.20;99.90
2889;DHT22;1453;42.708;23.282;2022-08-03T02:46:30;17.40;99.90
2889;DHT22;1453;42.708;23.282;2022-08-03T02:49:00;17.60;99.90
2889;DHT22;1453;42.708;23.282;2022-08-03T02:51:29;17.90;99.90
2889;DHT22;1453;42.708;23.282;2022-08-03T02:53:57;18.00;99.90
2889;DHT22;1453;42.708;23.282;2022-08-03T02:56:26;18.20;99.90
2889;DHT22;1453;42.708;23.282;2022-08-03T02:58:53;18.30;99.90
2889;DHT22;1453;42.708;23.282;2022-08-03T03:01:21;18.30;99.90
2889;DHT22;1453;42.708;23.282;2022-08-03T03:03:50;18.40;99.90
2889;DHT22;1453;42.708;23.282;2022-08-03T03:06:17;18.40;99.90
2889;DHT22;1453;42.708;23.282;2022-08-03T03:08:45;18.40;99.90
2889;DHT22;1453;42.708;23.282;2022-08-03T03:11:14;18.30;99.90
2889;DHT22;1453;42.708;23.282;2022-08-03T03:13:42;18.30;99.90
2889;DHT22;1453;42.708;23.282;2022-08-03T03:16:10;18.20;99.90
2889;DHT22;1453;42.708;23.282;2022-08-03T03:18:39;18.30;99.90
2889;DHT22;1453;42.708;23.282;2022-08-03T03:21:07;18.10;99.90
2889;DHT22;1453;42.708;23.282;2022-08-03T03:23:39;18.00;99.90
2889;DHT22;1453;42.708;23.282;2022-08-03T03:26:06;18.00;99.90
2889;DHT22;1453;42.708;23.282;2022-08-03T03:28:33;18.00;99.90
2889;DHT22;1453;42.708;23.282;2022-08-03T03:31:04;17.90;99.90
2889;DHT22;1453;42.708;23.282;2022-08-03T03:33:32;18.00;99.90
2889;DHT22;1453;42.708;23.282;2022-08-03T03:35:59;17.90;99.90
2889;DHT22;1453;42.708;23.282;2022-08-03T03:38:25;18.00;99.90
2889;DHT22;1453;42.708;23.282;2022-08-03T03:40:52;18.00;99.90
2889;DHT22;1453;42.708;23.282;2022-08-03T03:43:18;18.00;99.90
2889;DHT22;1453;42.708;23.282;2022-08-03T03:45:44;17.90;99.90
2889;DHT22;1453;42.708;23.282;2022-08-03T03:48:12;17.80;99.90
2889;DHT22;1453;42.708;23.282;2022-08-03T03:50:38;17.50;99.90
2889;DHT22;1453;42.708;23.282;2022-08-03T03:53:08;17.10;99.90
2889;DHT22;1453;42.708;23.282;2022-08-03T03:55:36;16.90;99.90
2889;DHT22;1453;42.708;23.282;2022-08-03T03:58:03;16.90;99.90
2889;DHT22;1453;42.708;23.282;2022-08-03T04:00:29;17.00;99.90
2889;DHT22;1453;42.708;23.282;2022-08-03T04:02:55;17.00;99.90
2889;DHT22;1453;42.708;23.282;2022-08-03T04:05:22;17.00;99.90
2889;DHT22;1453;42.708;23.282;2022-08-03T04:08:09;17.50;99.90
2889;DHT22;1453;42.708;23.282;2022-08-03T04:11:21;17.60;99.90
2889;DHT22;1453;42.708;23.282;2022-08-03T04:16:30;18.00;99.90
2889;DHT22;1453;42.708;23.282;2022-08-03T04:19:01;18.30;99.90
2889;DHT22;1453;42.708;23.282;2022-08-03T04:21:29;18.40;99.90
2889;DHT22;1453;42.708;23.282;2022-08-03T04:24:01;18.40;99.90
2889;DHT22;1453;42.708;23.282;2022-08-03T04:26:33;18.40;99.90
2889;DHT22;1453;42.708;23.282;2022-08-03T04:29:03;18.40;99.90
2889;DHT22;1453;42.708;23.282;2022-08-03T04:31:30;18.50;99.90
2889;DHT22;1453;42.708;23.282;2022-08-03T04:33:56;18.50;99.90
2889;DHT22;1453;42.708;23.282;2022-08-03T04:36:25;18.60;99.90
2889;DHT22;1453;42.708;23.282;2022-08-03T04:39:07;18.70;99.90
2889;DHT22;1453;42.708;23.282;2022-08-03T04:41:58;18.80;99.90
2889;DHT22;1453;42.708;23.282;2022-08-03T04:44:28;19.00;99.90
2889;DHT22;1453;42.708;23.282;2022-08-03T04:46:55;19.20;99.90
2889;DHT22;1453;42.708;23.282;2022-08-03T04:49:22;19.40;99.90
2889;DHT22;1453;42.708;23.282;2022-08-03T04:51:49;19.50;99.90
2889;DHT22;1453;42.708;23.282;2022-08-03T04:54:18;19.30;99.90
2889;DHT22;1453;42.708;23.282;2022-08-03T04:56:43;19.40;99.90
2889;DHT22;1453;42.708;23.282;2022-08-03T04:59:10;19.30;99.90
2889;DHT22;1453;42.708;23.282;2022-08-03T05:01:36;19.40;99.90
2889;DHT22;1453;42.708;23.282;2022-08-03T05:04:03;19.50;99.90
2889;DHT22;1453;42.708;23.282;2022-08-03T05:06:29;19.60;99.90
2889;DHT22;1453;42.708;23.282;2022-08-03T05:08:55;19.60;99.90
2889;DHT22;1453;42.708;23.282;2022-08-03T05:11:21;19.80;99.90
2889;DHT22;1453;42.708;23.282;2022-08-03T05:13:47;19.80;99.90
2889;DHT22;1453;42.708;23.282;2022-08-03T05:16:13;19.90;99.90
2889;DHT22;1453;42.708;23.282;2022-08-03T05:18:42;20.00;99.90
2889;DHT22;1453;42.708;23.282;2022-08-03T05:21:09;20.40;99.90
2889;DHT22;1453;42.708;23.282;2022-08-03T05:23:35;20.90;99.90
2889;DHT22;1453;42.708;23.282;2022-08-03T05:26:02;21.20;99.90
2889;DHT22;1453;42.708;23.282;2022-08-03T05:28:28;21.30;99.90
2889;DHT22;1453;42.708;23.282;2022-08-03T05:30:54;21.90;99.90
2889;DHT22;1453;42.708;23.282;2022-08-03T05:33:20;22.30;99.90
2889;DHT22;1453;42.708;23.282;2022-08-03T05:35:45;22.80;99.90
2889;DHT22;1453;42.708;23.282;2022-08-03T05:38:11;23.20;99.90
2889;DHT22;1453;42.708;23.282;2022-08-03T05:40:37;23.20;99.90
2889;DHT22;1453;42.708;23.282;2022-08-03T05:43:03;23.10;99.90
2889;DHT22;1453;42.708;23.282;2022-08-03T05:45:29;23.10;99.90
2889;DHT22;1453;42.708;23.282;2022-08-03T05:47:54;23.10;99.90
2889;DHT22;1453;42.708;23.282;2022-08-03T05:50:21;23.10;99.90
2889;DHT22;1453;42.708;23.282;2022-08-03T05:52:47;23.00;99.90
2889;DHT22;1453;42.708;23.282;2022-08-03T05:55:13;22.60;99.90
2889;DHT22;1453;42.708;23.282;2022-08-03T05:57:40;23.10;99.90
2889;DHT22;1453;42.708;23.282;2022-08-03T06:00:08;23.90;99.90
2889;DHT22;1453;42.708;23.282;2022-08-03T06:02:35;24.60;99.90
2889;DHT22;1453;42.708;23.282;2022-08-03T06:05:01;24.60;99.90
2889;DHT22;1453;42.708;23.282;2022-08-03T06:07:27;23.90;99.90
2889;DHT22;1453;42.708;23.282;2022-08-03T06:09:53;24.60;99.90
2889;DHT22;1453;42.708;23.282;2022-08-03T06:12:19;25.10;99.90
2889;DHT22;1453;42.708;23.282;2022-08-03T06:14:45;25.40;99.60
2889;DHT22;1453;42.708;23.282;2022-08-03T06:17:11;25.10;98.60
2889;DHT22;1453;42.708;23.282;2022-08-03T06:19:37;25.00;98.20
2889;DHT22;1453;42.708;23.282;2022-08-03T06:22:03;25.40;97.20
2889;DHT22;1453;42.708;23.282;2022-08-03T06:24:29;25.90;97.00
2889;DHT22;1453;42.708;23.282;2022-08-03T06:26:55;25.60;95.80
2889;DHT22;1453;42.708;23.282;2022-08-03T06:29:21;24.50;97.90
2889;DHT22;1453;42.708;23.282;2022-08-03T06:31:47;23.30;99.90
2889;DHT22;1453;42.708;23.282;2022-08-03T06:34:12;23.80;99.90
2889;DHT22;1453;42.708;23.282;2022-08-03T06:36:38;23.10;99.90
2889;DHT22;1453;42.708;23.282;2022-08-03T06:39:04;23.30;99.90
2889;DHT22;1453;42.708;23.282;2022-08-03T06:41:31;24.60;99.90
2889;DHT22;1453;42.708;23.282;2022-08-03T06:43:56;25.10;99.80
2889;DHT22;1453;42.708;23.282;2022-08-03T06:46:22;25.60;99.80
2889;DHT22;1453;42.708;23.282;2022-08-03T06:48:48;27.00;96.40
2889;DHT22;1453;42.708;23.282;2022-08-03T06:51:14;27.50;93.90
2889;DHT22;1453;42.708;23.282;2022-08-03T06:53:40;27.60;91.70
2889;DHT22;1453;42.708;23.282;2022-08-03T06:56:07;27.50;91.50
2889;DHT22;1453;42.708;23.282;2022-08-03T06:58:33;27.70;90.80
2889;DHT22;1453;42.708;23.282;2022-08-03T07:01:00;27.60;91.20
2889;DHT22;1453;42.708;23.282;2022-08-03T07:03:25;28.20;87.70
2889;DHT22;1453;42.708;23.282;2022-08-03T07:05:51;28.30;86.70
2889;DHT22;1453;42.708;23.282;2022-08-03T07:08:17;27.80;88.40
2889;DHT22;1453;42.708;23.282;2022-08-03T07:10:44;27.40;88.30
2889;DHT22;1453;42.708;23.282;2022-08-03T07:13:10;27.50;87.40
2889;DHT22;1453;42.708;23.282;2022-08-03T07:15:36;27.90;86.30
2889;DHT22;1453;42.708;23.282;2022-08-03T07:18:02;27.70;86.20
2889;DHT22;1453;42.708;23.282;2022-08-03T07:20:29;27.60;86.00
2889;DHT22;1453;42.708;23.282;2022-08-03T07:22:54;28.00;85.70
2889;DHT22;1453;42.708;23.282;2022-08-03T07:25:20;27.80;83.30
2889;DHT22;1453;42.708;23.282;2022-08-03T07:27:47;27.60;84.80
2889;DHT22;1453;42.708;23.282;2022-08-03T07:30:14;28.00;85.50
2889;DHT22;1453;42.708;23.282;2022-08-03T07:32:40;28.00;86.80
2889;DHT22;1453;42.708;23.282;2022-08-03T07:35:07;28.10;85.00
2889;DHT22;1453;42.708;23.282;2022-08-03T07:37:35;28.70;84.50
2889;DHT22;1453;42.708;23.282;2022-08-03T07:40:02;29.50;82.50
2889;DHT22;1453;42.708;23.282;2022-08-03T07:42:31;29.10;80.10
2889;DHT22;1453;42.708;23.282;2022-08-03T07:44:58;29.30;78.30
2889;DHT22;1453;42.708;23.282;2022-08-03T07:47:27;29.90;77.50
2889;DHT22;1453;42.708;23.282;2022-08-03T07:49:54;29.70;77.20
2889;DHT22;1453;42.708;23.282;2022-08-03T07:52:20;29.60;77.50
2889;DHT22;1453;42.708;23.282;2022-08-03T07:55:05;29.40;76.50
2889;DHT22;1453;42.708;23.282;2022-08-03T07:57:32;27.90;81.60
2889;DHT22;1453;42.708;23.282;2022-08-03T07:59:58;29.40;80.30
2889;DHT22;1453;42.708;23.282;2022-08-03T08:02:24;30.60;75.30
2889;DHT22;1453;42.708;23.282;2022-08-03T08:04:50;30.50;74.70
2889;DHT22;1453;42.708;23.282;2022-08-03T08:07:16;30.20;72.80
2889;DHT22;1453;42.708;23.282;2022-08-03T08:09:42;29.00;75.50
2889;DHT22;1453;42.708;23.282;2022-08-03T08:12:07;28.90;76.20
2889;DHT22;1453;42.708;23.282;2022-08-03T08:14:35;29.30;72.70
2889;DHT22;1453;42.708;23.282;2022-08-03T08:17:00;28.80;75.80
2889;DHT22;1453;42.708;23.282;2022-08-03T08:19:26;29.60;74.20
2889;DHT22;1453;42.708;23.282;2022-08-03T08:21:52;29.90;73.00
2889;DHT22;1453;42.708;23.282;2022-08-03T08:24:18;29.30;73.40
2889;DHT22;1453;42.708;23.282;2022-08-03T08:26:44;29.30;73.00
2889;DHT22;1453;42.708;23.282;2022-08-03T08:29:10;30.20;69.90
2889;DHT22;1453;42.708;23.282;2022-08-03T08:31:35;31.00;68.00
2889;DHT22;1453;42.708;23.282;2022-08-03T08:34:01;31.60;68.40
2889;DHT22;1453;42.708;23.282;2022-08-03T08:36:34;31.60;68.10
2889;DHT22;1453;42.708;23.282;2022-08-03T08:39:01;32.10;65.70
2889;DHT22;1453;42.708;23.282;2022-08-03T08:41:27;32.60;65.60
2889;DHT22;1453;42.708;23.282;2022-08-03T08:43:53;32.50;63.80
2889;DHT22;1453;42.708;23.282;2022-08-03T08:46:20;32.00;63.10
2889;DHT22;1453;42.708;23.282;2022-08-03T08:48:47;32.30;64.90
2889;DHT22;1453;42.708;23.282;2022-08-03T08:51:15;33.00;63.60
2889;DHT22;1453;42.708;23.282;2022-08-03T08:53:48;32.10;61.50
2889;DHT22;1453;42.708;23.282;2022-08-03T08:56:16;32.10;63.90
2889;DHT22;1453;42.708;23.282;2022-08-03T08:58:55;32.90;61.90
2889;DHT22;1453;42.708;23.282;2022-08-03T09:01:23;33.60;58.90
2889;DHT22;1453;42.708;23.282;2022-08-03T09:03:48;33.10;57.40
2889;DHT22;1453;42.708;23.282;2022-08-03T09:06:15;33.40;58.30
2889;DHT22;1453;42.708;23.282;2022-08-03T09:08:41;33.50;58.60
2889;DHT22;1453;42.708;23.282;2022-08-03T09:11:07;34.10;57.80
2889;DHT22;1453;42.708;23.282;2022-08-03T09:13:34;33.50;57.80
2889;DHT22;1453;42.708;23.282;2022-08-03T09:16:21;33.10;56.80
2889;DHT22;1453;42.708;23.282;2022-08-03T09:18:50;33.00;57.20
2889;DHT22;1453;42.708;23.282;2022-08-03T09:21:22;31.80;58.50
2889;DHT22;1453;42.708;23.282;2022-08-03T09:23:55;31.70;58.30
2889;DHT22;1453;42.708;23.282;2022-08-03T09:26:27;32.30;58.20
2889;DHT22;1453;42.708;23.282;2022-08-03T09:34:02;32.70;57.90
2889;DHT22;1453;42.708;23.282;2022-08-03T09:36:46;31.60;58.40
2889;DHT22;1453;42.708;23.282;2022-08-03T09:39:14;30.40;61.70
2889;DHT22;1453;42.708;23.282;2022-08-03T09:41:44;30.70;62.40
2889;DHT22;1453;42.708;23.282;2022-08-03T09:44:11;32.50;59.50
2889;DHT22;1453;42.708;23.282;2022-08-03T09:46:51;33.40;58.30
2889;DHT22;1453;42.708;23.282;2022-08-03T09:49:19;34.60;57.00
2889;DHT22;1453;42.708;23.282;2022-08-03T09:51:45;34.90;55.70
2889;DHT22;1453;42.708;23.282;2022-08-03T09:54:12;35.10;55.80
2889;DHT22;1453;42.708;23.282;2022-08-03T09:56:39;35.40;55.00
2889;DHT22;1453;42.708;23.282;2022-08-03T09:59:23;35.10;54.60
2889;DHT22;1453;42.708;23.282;2022-08-03T10:01:49;34.60;54.20
2889;DHT22;1453;42.708;23.282;2022-08-03T10:04:15;34.60;54.50
2889;DHT22;1453;42.708;23.282;2022-08-03T10:07:00;35.60;53.90
2889;DHT22;1453;42.708;23.282;2022-08-03T10:09:30;34.00;54.10
2889;DHT22;1453;42.708;23.282;2022-08-03T10:11:56;34.30;55.60
2889;DHT22;1453;42.708;23.282;2022-08-03T10:14:24;35.20;54.70
2889;DHT22;1453;42.708;23.282;2022-08-03T10:16:54;34.50;54.50
2889;DHT22;1453;42.708;23.282;2022-08-03T10:19:20;34.40;55.90
2889;DHT22;1453;42.708;23.282;2022-08-03T10:21:54;33.50;56.20
2889;DHT22;1453;42.708;23.282;2022-08-03T10:24:25;33.10;56.50
2889;DHT22;1453;42.708;23.282;2022-08-03T10:27:00;33.20;56.60
2889;DHT22;1453;42.708;23.282;2022-08-03T10:29:37;33.80;55.20
2889;DHT22;1453;42.708;23.282;2022-08-03T10:32:09;33.20;56.20
2889;DHT22;1453;42.708;23.282;2022-08-03T10:34:44;33.30;56.40
2889;DHT22;1453;42.708;23.282;2022-08-03T10:37:12;33.30;55.30
2889;DHT22;1453;42.708;23.282;2022-08-03T10:39:43;32.60;56.00
2889;DHT22;1453;42.708;23.282;2022-08-03T10:42:20;32.80;56.90
2889;DHT22;1453;42.708;23.282;2022-08-03T10:44:52;32.90;57.40
2889;DHT22;1453;42.708;23.282;2022-08-03T10:47:22;33.20;57.30
2889;DHT22;1453;42.708;23.282;2022-08-03T10:49:48;33.50;55.90
2889;DHT22;1453;42.708;23.282;2022-08-03T10:52:15;33.50;55.50
2889;DHT22;1453;42.708;23.282;2022-08-03T10:54:43;33.90;56.30
2889;DHT22;1453;42.708;23.282;2022-08-03T10:58:00;33.30;56.20
2889;DHT22;1453;42.708;23.282;2022-08-03T11:00:27;32.70;56.80
2889;DHT22;1453;42.708;23.282;2022-08-03T11:05:41;33.90;57.10
2889;DHT22;1453;42.708;23.282;2022-08-03T11:08:24;34.10;55.60
2889;DHT22;1453;42.708;23.282;2022-08-03T11:11:02;33.90;55.40
2889;DHT22;1453;42.708;23.282;2022-08-03T11:14:02;34.80;55.60
2889;DHT22;1453;42.708;23.282;2022-08-03T11:16:49;36.00;53.40
2889;DHT22;1453;42.708;23.282;2022-08-03T11:19:50;36.00;53.90
2889;DHT22;1453;42.708;23.282;2022-08-03T11:22:18;36.50;52.70
2889;DHT22;1453;42.708;23.282;2022-08-03T11:48:47;34.30;54.40
2889;DHT22;1453;42.708;23.282;2022-08-03T11:51:25;35.80;53.60
2889;DHT22;1453;42.708;23.282;2022-08-03T11:54:00;35.80;53.00
2889;DHT22;1453;42.708;23.282;2022-08-03T11:56:46;36.00;51.60
2889;DHT22;1453;42.708;23.282;2022-08-03T11:59:13;35.90;52.80
2889;DHT22;1453;42.708;23.282;2022-08-03T12:01:39;35.60;53.20
2889;DHT22;1453;42.708;23.282;2022-08-03T12:04:05;34.40;54.60
2889;DHT22;1453;42.708;23.282;2022-08-03T12:06:31;34.80;54.80
2889;DHT22;1453;42.708;23.282;2022-08-03T12:09:17;35.80;53.70
2889;DHT22;1453;42.708;23.282;2022-08-03T12:11:47;36.20;52.50
2889;DHT22;1453;42.708;23.282;2022-08-03T12:14:18;36.00;52.90
2889;DHT22;1453;42.708;23.282;2022-08-03T12:16:47;36.00;53.00
2889;DHT22;1453;42.708;23.282;2022-08-03T12:19:14;35.80;52.80
2889;DHT22;1453;42.708;23.282;2022-08-03T12:21:47;33.90;53.40
2889;DHT22;1453;42.708;23.282;2022-08-03T12:24:14;33.60;54.10
2889;DHT22;1453;42.708;23.282;2022-08-03T12:26:46;33.30;54.60
2889;DHT22;1453;42.708;23.282;2022-08-03T12:29:20;33.10;54.90
2889;DHT22;1453;42.708;23.282;2022-08-03T12:31:47;33.10;55.50
2889;DHT22;1453;42.708;23.282;2022-08-03T12:34:13;33.20;55.00
2889;DHT22;1453;42.708;23.282;2022-08-03T12:36:50;32.20;55.20
2889;DHT22;1453;42.708;23.282;2022-08-03T12:39:22;32.00;57.10
2889;DHT22;1453;42.708;23.282;2022-08-03T12:41:53;32.10;56.80
2889;DHT22;1453;42.708;23.282;2022-08-03T12:44:32;32.20;56.90
2889;DHT22;1453;42.708;23.282;2022-08-03T12:47:01;31.30;57.40
2889;DHT22;1453;42.708;23.282;2022-08-03T12:49:28;30.50;58.90
2889;DHT22;1453;42.708;23.282;2022-08-03T12:52:17;30.00;60.70
2889;DHT22;1453;42.708;23.282;2022-08-03T12:54:54;30.30;61.10
2889;DHT22;1453;42.708;23.282;2022-08-03T12:57:24;30.70;60.10
2889;DHT22;1453;42.708;23.282;2022-08-03T12:59:50;31.10;59.00
2889;DHT22;1453;42.708;23.282;2022-08-03T13:02:20;31.50;58.40
2889;DHT22;1453;42.708;23.282;2022-08-03T14:14:00;29.60;62.10
2889;DHT22;1453;42.708;23.282;2022-08-03T14:16:25;30.80;60.40
2889;DHT22;1453;42.708;23.282;2022-08-03T14:18:51;30.80;59.20
2889;DHT22;1453;42.708;23.282;2022-08-03T14:21:17;31.10;59.40
2889;DHT22;1453;42.708;23.282;2022-08-03T14:23:43;31.00;59.40
2889;DHT22;1453;42.708;23.282;2022-08-03T14:26:09;31.10;58.80
2889;DHT22;1453;42.708;23.282;2022-08-03T14:28:36;30.30;60.10
2889;DHT22;1453;42.708;23.282;2022-08-03T14:31:02;29.00;63.50
2889;DHT22;1453;42.708;23.282;2022-08-03T14:33:29;28.90;64.70
2889;DHT22;1453;42.708;23.282;2022-08-03T14:35:54;28.60;65.20
2889;DHT22;1453;42.708;23.282;2022-08-03T14:38:21;28.90;66.20
2889;DHT22;1453;42.708;23.282;2022-08-03T14:40:47;29.10;65.80
2889;DHT22;1453;42.708;23.282;2022-08-03T14:43:14;29.40;66.10
2889;DHT22;1453;42.708;23.282;2022-08-03T14:45:42;29.30;65.80
2889;DHT22;1453;42.708;23.282;2022-08-03T14:48:08;29.00;66.40
2889;DHT22;1453;42.708;23.282;2022-08-03T14:50:34;28.90;66.50
2889;DHT22;1453;42.708;23.282;2022-08-03T14:52:59;29.10;66.40
2889;DHT22;1453;42.708;23.282;2022-08-03T14:55:25;29.10;66.70
2889;DHT22;1453;42.708;23.282;2022-08-03T14:57:51;28.30;68.40
2889;DHT22;1453;42.708;23.282;2022-08-03T15:00:17;27.90;68.50
2889;DHT22;1453;42.708;23.282;2022-08-03T15:02:43;27.90;68.50
2889;DHT22;1453;42.708;23.282;2022-08-03T15:05:09;27.80;68.90
2889;DHT22;1453;42.708;23.282;2022-08-03T15:07:37;27.80;69.00
2889;DHT22;1453;42.708;23.282;2022-08-03T15:10:03;27.90;68.20
2889;DHT22;1453;42.708;23.282;2022-08-03T15:12:29;28.00;68.10
2889;DHT22;1453;42.708;23.282;2022-08-03T15:14:56;28.10;68.30
2889;DHT22;1453;42.708;23.282;2022-08-03T15:17:22;28.00;68.40
2889;DHT22;1453;42.708;23.282;2022-08-03T15:19:48;28.00;69.00
2889;DHT22;1453;42.708;23.282;2022-08-03T15:22:14;28.10;69.70
2889;DHT22;1453;42.708;23.282;2022-08-03T15:24:41;28.10;69.90
2889;DHT22;1453;42.708;23.282;2022-08-03T15:27:07;28.40;70.70
2889;DHT22;1453;42.708;23.282;2022-08-03T15:29:33;28.60;68.80
2889;DHT22;1453;42.708;23.282;2022-08-03T15:31:59;28.20;69.70
2889;DHT22;1453;42.708;23.282;2022-08-03T15:34:25;28.10;70.60
2889;DHT22;1453;42.708;23.282;2022-08-03T15:36:51;27.40;72.20
2889;DHT22;1453;42.708;23.282;2022-08-03T15:39:16;26.80;74.90
2889;DHT22;1453;42.708;23.282;2022-08-03T15:41:42;26.20;78.10
2889;DHT22;1453;42.708;23.282;2022-08-03T15:44:09;26.00;82.00
2889;DHT22;1453;42.708;23.282;2022-08-03T15:46:35;26.10;84.20
2889;DHT22;1453;42.708;23.282;2022-08-03T15:49:01;25.80;87.90
2889;DHT22;1453;42.708;23.282;2022-08-03T15:51:26;25.70;92.00
2889;DHT22;1453;42.708;23.282;2022-08-03T15:53:52;25.40;95.50
2889;DHT22;1453;42.708;23.282;2022-08-03T15:56:18;24.80;99.90
2889;DHT22;1453;42.708;23.282;2022-08-03T15:58:44;24.20;99.90
2889;DHT22;1453;42.708;23.282;2022-08-03T16:01:10;24.20;99.90
2889;DHT22;1453;42.708;23.282;2022-08-03T16:03:36;24.10;99.90
2889;DHT22;1453;42.708;23.282;2022-08-03T16:06:04;24.30;99.90
2889;DHT22;1453;42.708;23.282;2022-08-03T16:08:32;23.80;99.90
2889;DHT22;1453;42.708;23.282;2022-08-03T16:10:59;24.00;99.90
2889;DHT22;1453;42.708;23.282;2022-08-03T16:13:26;24.00;99.90
2889;DHT22;1453;42.708;23.282;2022-08-03T16:15:52;23.70;99.90
2889;DHT22;1453;42.708;23.282;2022-08-03T16:18:19;23.50;99.90
2889;DHT22;1453;42.708;23.282;2022-08-03T16:20:45;23.30;99.90
2889;DHT22;1453;42.708;23.282;2022-08-03T16:23:11;23.40;99.90
2889;DHT22;1453;42.708;23.282;2022-08-03T16:25:38;23.40;99.90
2889;DHT22;1453;42.708;23.282;2022-08-03T16:28:05;23.20;99.90
2889;DHT22;1453;42.708;23.282;2022-08-03T16:30:31;23.20;99.90
2889;DHT22;1453;42.708;23.282;2022-08-03T16:32:57;23.10;99.90
2889;DHT22;1453;42.708;23.282;2022-08-03T16:35:23;23.00;99.90
2889;DHT22;1453;42.708;23.282;2022-08-03T16:37:49;23.10;99.90
2889;DHT22;1453;42.708;23.282;2022-08-03T16:40:15;23.10;99.90
2889;DHT22;1453;42.708;23.282;2022-08-03T16:42:41;23.40;99.90
2889;DHT22;1453;42.708;23.282;2022-08-03T16:45:08;23.50;99.90
2889;DHT22;1453;42.708;23.282;2022-08-03T16:47:34;23.50;99.90
2889;DHT22;1453;42.708;23.282;2022-08-03T16:50:00;23.40;99.90
2889;DHT22;1453;42.708;23.282;2022-08-03T16:52:26;23.60;99.90
2889;DHT22;1453;42.708;23.282;2022-08-03T16:54:53;23.60;99.90
2889;DHT22;1453;42.708;23.282;2022-08-03T16:57:23;23.60;99.90
2889;DHT22;1453;42.708;23.282;2022-08-03T16:59:49;23.70;99.90
2889;DHT22;1453;42.708;23.282;2022-08-03T17:02:24;23.80;99.90
2889;DHT22;1453;42.708;23.282;2022-08-03T17:04:52;23.90;99.90
2889;DHT22;1453;42.708;23.282;2022-08-03T17:07:19;24.00;99.90
2889;DHT22;1453;42.708;23.282;2022-08-03T17:09:46;24.10;99.90
2889;DHT22;1453;42.708;23.282;2022-08-03T17:12:13;24.20;99.90
2889;DHT22;1453;42.708;23.282;2022-08-03T17:14:40;24.30;99.90
2889;DHT22;1453;42.708;23.282;2022-08-03T17:17:14;24.20;99.90
2889;DHT22;1453;42.708;23.282;2022-08-03T17:19:42;24.20;99.90
2889;DHT22;1453;42.708;23.282;2022-08-03T17:22:15;24.30;99.90
2889;DHT22;1453;42.708;23.282;2022-08-03T17:24:49;24.40;99.90
2889;DHT22;1453;42.708;23.282;2022-08-03T17:27:23;24.50;99.90
2889;DHT22;1453;42.708;23.282;2022-08-03T17:29:57;24.50;99.90
2889;DHT22;1453;42.708;23.282;2022-08-03T17:32:32;24.60;99.90
2889;DHT22;1453;42.708;23.282;2022-08-03T17:34:59;24.80;99.90
2889;DHT22;1453;42.708;23.282;2022-08-03T17:37:25;24.70;99.90
2889;DHT22;1453;42.708;23.282;2022-08-03T17:39:53;24.90;99.90
2889;DHT22;1453;42.708;23.282;2022-08-03T17:42:20;24.90;99.40
2889;DHT22;1453;42.708;23.282;2022-08-03T17:44:47;25.00;99.60
2889;DHT22;1453;42.708;23.282;2022-08-03T17:47:13;25.00;98.90
2889;DHT22;1453;42.708;23.282;2022-08-03T17:49:39;25.20;98.90
2889;DHT22;1453;42.708;23.282;2022-08-03T17:52:09;25.20;97.80